Página principal
METAR-TAF:

METAR-TAF

Aeroportos :

Bahrein, Bahrein

Aeroporto Internacional do Bahrain

latitude: 26-16N, longitude: 050-39E, altura: 2 m

Observação actual do tempo

O boletim foi feito há 23 minutos, às 22:30 UTC
Vento 6 kt de su-sudeste, variando entre sudeste e su-sudoeste
Temperatura 26°C
Humidade 51%
Pressão 1011 hPa
Visibilidade 10 km ou mais
sem nuvens abaixo de 1500 metros e sem cumulonimbus

METAR: OBBI 212230Z 16006KT 130V200 CAVOK 26/15 Q1011 NOSIG

Hora: 01:53 (22:53 UTC)

Previsão

O boletim foi feito há 5 horas e 53 minutos, às 17:00 UTC
Previsão válida de 21 às 18 UTC a 23 às 00 UTC
Vento 12 kt de su-sudeste
Visibilidade 10 km ou mais
Poucas nuvensa uma altura de 3000 ft
Nuvens fragmentadasa uma altura de 10000 ft

TAF: OBBI 211700Z 2118/2300 15012KT 9999 FEW030 BKN100

Observações e previsões do tempo de mais de 4000 aeroportos (mensagens METAR e TAF).

As estações disponíveis são os pontos amarelos e vermelhos sobre o mapa.

Mova o rato sobre o mapa para ver o nome da estação.

Depois clique no ponto para visualizar as observações e previsões meteorológicas.

Para alterar o mapa : clique nos botões verdes com uma cruz preta para aumentar o zoom; no botão verde com uma pitada de zoom; ou nas setas verdes para mapas adjacentes.


METAR-TAF: